TVS4455 NCRG-YSSY
Flight info
| Callsign | TVS4455 |
|---|---|
| Flight time | N/A |
| Altitude | 38000 |
| Route | TOKET1P BIXIT G594 OVTOS DCT ODUTI G595 SARAP DCT MARLN |
| Aircraft | A320/M-SDE3FGHIRWY/LB1 |
Departure
| Time | 2026-04-25 11:12 |
|---|---|
| Airport | Rarotonga International Airport (NCRG) |
Arrival
| Time | N/A |
|---|---|
| Airport | Sydney Kingsford Smith International Airport (YSSY) |
| Time | Latitude | Longitude | Altitude | Speed | Heading |
|---|---|---|---|---|---|
| 2026-04-25 10:46 | -21.20070 | -159.79852 | 10 ft | 0 kts | 89° |
| 2026-04-25 11:07 | -21.20070 | -159.79849 | 10 ft | 2 kts | 89° |
| 2026-04-25 11:07 | -21.20093 | -159.79832 | 11 ft | 4 kts | 170° |
| 2026-04-25 11:08 | -21.20117 | -159.79832 | 10 ft | 3 kts | 180° |
| 2026-04-25 11:08 | -21.20152 | -159.79832 | 10 ft | 5 kts | 181° |
| 2026-04-25 11:08 | -21.20181 | -159.79833 | 10 ft | 3 kts | 181° |
| 2026-04-25 11:08 | -21.20228 | -159.79831 | 11 ft | 10 kts | 169° |
| 2026-04-25 11:09 | -21.20256 | -159.79771 | 11 ft | 12 kts | 92° |
| 2026-04-25 11:09 | -21.20259 | -159.79669 | 10 ft | 14 kts | 90° |
| 2026-04-25 11:09 | -21.20275 | -159.79569 | 10 ft | 11 kts | 120° |
| 2026-04-25 11:09 | -21.20309 | -159.79514 | 10 ft | 8 kts | 116° |
| 2026-04-25 11:10 | -21.20297 | -159.79468 | 10 ft | 6 kts | 41° |
| 2026-04-25 11:10 | -21.20274 | -159.79462 | 10 ft | 5 kts | 359° |
| 2026-04-25 11:10 | -21.20256 | -159.79486 | 10 ft | 2 kts | 275° |
| 2026-04-25 11:10 | -21.20257 | -159.79491 | 10 ft | 0 kts | 269° |
| 2026-04-25 11:11 | -21.20257 | -159.79522 | 10 ft | 26 kts | 269° |
| 2026-04-25 11:11 | -21.20257 | -159.80015 | 11 ft | 102 kts | 270° |
| 2026-04-25 11:12 | -21.20258 | -159.81004 | 27 ft | 160 kts | 270° |
| 2026-04-25 11:12 | -21.20266 | -159.82268 | 477 ft | 170 kts | 268° |
| 2026-04-25 11:12 | -21.20270 | -159.83540 | 1106 ft | 171 kts | 265° |
| 2026-04-25 11:12 | -21.20271 | -159.84849 | 1627 ft | 184 kts | 266° |
| 2026-04-25 11:13 | -21.20273 | -159.86305 | 1918 ft | 207 kts | 265° |
| 2026-04-25 11:13 | -21.20336 | -159.87922 | 2216 ft | 226 kts | 253° |
| 2026-04-25 11:13 | -21.21078 | -159.89443 | 2601 ft | 239 kts | 227° |
| 2026-04-25 11:13 | -21.22212 | -159.90746 | 3356 ft | 239 kts | 221° |
| 2026-04-25 11:14 | -21.23432 | -159.91975 | 4089 ft | 248 kts | 220° |
| 2026-04-25 11:14 | -21.24724 | -159.93264 | 4758 ft | 258 kts | 221° |
| 2026-04-25 11:14 | -21.26036 | -159.94607 | 5557 ft | 262 kts | 223° |
| 2026-04-25 11:14 | -21.27343 | -159.95992 | 6405 ft | 266 kts | 224° |
| 2026-04-25 11:15 | -21.28635 | -159.97397 | 7170 ft | 270 kts | 225° |
| 2026-04-25 11:15 | -21.29945 | -159.98844 | 7985 ft | 271 kts | 226° |
| 2026-04-25 11:15 | -21.31260 | -160.00308 | 8815 ft | 273 kts | 226° |
| 2026-04-25 11:15 | -21.32578 | -160.01782 | 9648 ft | 274 kts | 227° |
| 2026-04-25 11:16 | -21.35300 | -160.04836 | 10573 ft | 302 kts | 227° |
| 2026-04-25 11:16 | -21.36786 | -160.06510 | 11030 ft | 313 kts | 227° |
| 2026-04-25 11:16 | -21.38300 | -160.08215 | 11667 ft | 318 kts | 227° |
| 2026-04-25 11:17 | -21.39831 | -160.09937 | 12353 ft | 320 kts | 226° |
| 2026-04-25 11:17 | -21.41379 | -160.11677 | 13030 ft | 323 kts | 226° |
| 2026-04-25 11:17 | -21.42938 | -160.13431 | 13690 ft | 325 kts | 226° |
| 2026-04-25 11:17 | -21.44508 | -160.15198 | 14271 ft | 328 kts | 226° |
| 2026-04-25 11:18 | -21.46088 | -160.16979 | 14808 ft | 332 kts | 227° |
| 2026-04-25 11:18 | -21.47690 | -160.18783 | 15342 ft | 335 kts | 227° |
| 2026-04-25 11:18 | -21.49305 | -160.20603 | 15866 ft | 339 kts | 227° |
| 2026-04-25 11:18 | -21.50935 | -160.22439 | 16402 ft | 341 kts | 228° |
| 2026-04-25 11:19 | -21.52570 | -160.24261 | 16914 ft | 345 kts | 228° |
| 2026-04-25 11:19 | -21.54257 | -160.26115 | 17423 ft | 349 kts | 228° |
| 2026-04-25 11:19 | -21.55967 | -160.27980 | 17924 ft | 352 kts | 228° |
| 2026-04-25 11:19 | -21.57698 | -160.29868 | 18412 ft | 356 kts | 228° |
| 2026-04-25 11:20 | -21.59437 | -160.31766 | 18883 ft | 358 kts | 229° |
| 2026-04-25 11:20 | -21.61189 | -160.33682 | 19364 ft | 359 kts | 229° |
| 2026-04-25 11:20 | -21.62944 | -160.35605 | 19834 ft | 362 kts | 229° |
| 2026-04-25 11:20 | -21.64712 | -160.37546 | 20304 ft | 364 kts | 229° |
| 2026-04-25 11:21 | -21.66489 | -160.39498 | 20765 ft | 366 kts | 229° |
| 2026-04-25 11:21 | -21.68253 | -160.41434 | 21219 ft | 369 kts | 229° |
| 2026-04-25 11:21 | -21.70051 | -160.43409 | 21678 ft | 371 kts | 228° |
| 2026-04-25 11:21 | -21.71863 | -160.45399 | 22134 ft | 373 kts | 228° |
| 2026-04-25 11:22 | -21.73686 | -160.47404 | 22591 ft | 376 kts | 228° |
| 2026-04-25 11:22 | -21.74922 | -160.48766 | 22903 ft | 378 kts | 229° |
| 2026-04-25 11:22 | -21.77368 | -160.51465 | 23495 ft | 381 kts | 228° |
| 2026-04-25 11:22 | -21.79227 | -160.53516 | 23871 ft | 383 kts | 228° |
| 2026-04-25 11:23 | -21.81093 | -160.55571 | 24241 ft | 385 kts | 228° |
| 2026-04-25 11:23 | -21.82968 | -160.57637 | 24619 ft | 387 kts | 228° |
| 2026-04-25 11:23 | -21.84850 | -160.59713 | 24987 ft | 388 kts | 228° |
| 2026-04-25 11:23 | -21.86741 | -160.61798 | 25345 ft | 390 kts | 228° |
| 2026-04-25 11:24 | -21.88616 | -160.63867 | 25701 ft | 391 kts | 228° |
| 2026-04-25 11:24 | -21.90519 | -160.65968 | 26051 ft | 393 kts | 228° |
| 2026-04-25 11:24 | -21.92436 | -160.68085 | 26398 ft | 395 kts | 228° |
| 2026-04-25 11:24 | -21.94356 | -160.70210 | 26757 ft | 396 kts | 228° |
| 2026-04-25 11:25 | -21.96281 | -160.72343 | 27092 ft | 398 kts | 228° |
| 2026-04-25 11:25 | -21.98199 | -160.74496 | 27418 ft | 399 kts | 229° |
| 2026-04-25 11:25 | -22.00062 | -160.76719 | 27738 ft | 400 kts | 231° |
| 2026-04-25 11:25 | -22.01877 | -160.78993 | 28047 ft | 402 kts | 232° |
| 2026-04-25 11:26 | -22.03677 | -160.81307 | 28362 ft | 403 kts | 232° |
| 2026-04-25 11:26 | -22.05478 | -160.83634 | 28659 ft | 405 kts | 232° |
| 2026-04-25 11:26 | -22.07294 | -160.85969 | 28955 ft | 407 kts | 231° |
| 2026-04-25 11:26 | -22.09128 | -160.88306 | 29252 ft | 409 kts | 231° |
| 2026-04-25 11:27 | -22.10977 | -160.90641 | 29523 ft | 411 kts | 231° |
| 2026-04-25 11:27 | -22.12844 | -160.92985 | 29812 ft | 413 kts | 231° |
| 2026-04-25 11:27 | -22.14697 | -160.95308 | 30077 ft | 415 kts | 231° |
| 2026-04-25 11:27 | -22.15968 | -160.96901 | 30229 ft | 416 kts | 231° |
| 2026-04-25 11:28 | -22.18465 | -161.00041 | 30551 ft | 417 kts | 231° |
| 2026-04-25 11:28 | -22.20356 | -161.02424 | 30786 ft | 418 kts | 231° |
| 2026-04-25 11:28 | -22.22247 | -161.04814 | 31032 ft | 419 kts | 231° |
| 2026-04-25 11:28 | -22.24139 | -161.07209 | 31292 ft | 419 kts | 231° |
| 2026-04-25 11:29 | -22.26027 | -161.09598 | 31642 ft | 417 kts | 231° |
| 2026-04-25 11:29 | -22.27905 | -161.11976 | 32000 ft | 415 kts | 231° |
| 2026-04-25 11:29 | -22.29777 | -161.14337 | 32370 ft | 413 kts | 230° |
| 2026-04-25 11:29 | -22.31641 | -161.16682 | 32755 ft | 410 kts | 230° |
| 2026-04-25 11:30 | -22.33487 | -161.19011 | 33152 ft | 407 kts | 230° |
| 2026-04-25 11:30 | -22.35320 | -161.21332 | 33540 ft | 404 kts | 230° |
| 2026-04-25 11:30 | -22.37135 | -161.23635 | 33920 ft | 402 kts | 230° |
| 2026-04-25 11:30 | -22.38939 | -161.25926 | 34254 ft | 399 kts | 230° |
| 2026-04-25 11:31 | -22.40735 | -161.28206 | 34567 ft | 397 kts | 230° |
| 2026-04-25 11:31 | -22.42524 | -161.30477 | 34855 ft | 395 kts | 230° |
| 2026-04-25 11:31 | -22.44303 | -161.32734 | 35141 ft | 393 kts | 230° |
| 2026-04-25 11:31 | -22.46073 | -161.34980 | 35423 ft | 392 kts | 230° |
| 2026-04-25 11:32 | -22.47811 | -161.37188 | 35676 ft | 390 kts | 230° |
| 2026-04-25 11:32 | -22.49590 | -161.39444 | 35919 ft | 389 kts | 230° |
| 2026-04-25 11:32 | -22.53050 | -161.43842 | 36033 ft | 383 kts | 231° |
| 2026-04-25 11:33 | -22.56488 | -161.48210 | 36032 ft | 380 kts | 231° |
| 2026-04-25 11:33 | -22.59912 | -161.52574 | 36032 ft | 380 kts | 231° |
| 2026-04-25 11:34 | -22.63329 | -161.56939 | 36030 ft | 380 kts | 231° |
| 2026-04-25 11:34 | -22.66751 | -161.61303 | 36050 ft | 380 kts | 231° |
| 2026-04-25 11:35 | -22.70171 | -161.65672 | 36048 ft | 379 kts | 231° |
| 2026-04-25 11:35 | -22.73581 | -161.70027 | 36047 ft | 379 kts | 231° |
| 2026-04-25 11:36 | -22.76994 | -161.74385 | 36050 ft | 379 kts | 231° |
| 2026-04-25 11:36 | -22.80373 | -161.78711 | 36049 ft | 379 kts | 231° |
| 2026-04-25 11:37 | -22.83775 | -161.83075 | 36048 ft | 379 kts | 231° |
| 2026-04-25 11:37 | -22.87182 | -161.87439 | 36050 ft | 379 kts | 231° |
| 2026-04-25 11:38 | -22.90583 | -161.91807 | 36044 ft | 379 kts | 231° |
| 2026-04-25 11:38 | -22.93988 | -161.96186 | 36042 ft | 380 kts | 231° |
| 2026-04-25 11:39 | -22.97396 | -162.00570 | 36050 ft | 380 kts | 231° |
| 2026-04-25 11:39 | -23.00815 | -162.04958 | 36052 ft | 381 kts | 231° |
| 2026-04-25 11:40 | -23.04235 | -162.09349 | 36066 ft | 381 kts | 232° |
| 2026-04-25 11:40 | -23.07639 | -162.13744 | 36070 ft | 380 kts | 232° |
| 2026-04-25 11:41 | -23.11045 | -162.18138 | 36067 ft | 380 kts | 232° |
| 2026-04-25 11:41 | -23.14421 | -162.22497 | 36065 ft | 379 kts | 232° |
| 2026-04-25 11:42 | -23.17815 | -162.26883 | 36059 ft | 379 kts | 232° |
| 2026-04-25 11:42 | -23.21214 | -162.31280 | 36054 ft | 380 kts | 232° |
| 2026-04-25 11:43 | -23.24613 | -162.35677 | 36054 ft | 380 kts | 232° |
| 2026-04-25 11:43 | -23.28011 | -162.40072 | 36052 ft | 380 kts | 232° |
| 2026-04-25 11:44 | -23.31404 | -162.44471 | 36051 ft | 380 kts | 232° |
| 2026-04-25 11:44 | -23.34799 | -162.48876 | 36050 ft | 380 kts | 232° |
| 2026-04-25 11:45 | -23.38192 | -162.53283 | 36053 ft | 380 kts | 232° |
| 2026-04-25 11:45 | -23.41581 | -162.57686 | 36074 ft | 379 kts | 232° |
| 2026-04-25 11:46 | -23.44951 | -162.62086 | 36065 ft | 378 kts | 232° |
| 2026-04-25 11:46 | -23.48303 | -162.66449 | 36059 ft | 378 kts | 232° |
| 2026-04-25 11:47 | -23.51681 | -162.70839 | 36057 ft | 378 kts | 232° |
| 2026-04-25 11:47 | -23.55052 | -162.75234 | 36059 ft | 378 kts | 232° |
| 2026-04-25 11:48 | -23.58422 | -162.79633 | 36053 ft | 378 kts | 232° |
| 2026-04-25 11:48 | -23.61767 | -162.84008 | 36052 ft | 378 kts | 232° |
| 2026-04-25 11:49 | -23.65131 | -162.88414 | 36050 ft | 378 kts | 232° |
| 2026-04-25 11:49 | -23.68496 | -162.92814 | 36050 ft | 378 kts | 232° |
| 2026-04-25 11:50 | -23.71865 | -162.97218 | 36050 ft | 378 kts | 233° |
| 2026-04-25 11:50 | -23.75227 | -163.01634 | 36049 ft | 378 kts | 233° |
| 2026-04-25 11:51 | -23.78589 | -163.06056 | 36051 ft | 379 kts | 233° |
| 2026-04-25 11:51 | -23.81937 | -163.10448 | 36058 ft | 379 kts | 233° |
| 2026-04-25 11:52 | -23.85301 | -163.14879 | 36058 ft | 379 kts | 233° |
| 2026-04-25 11:52 | -23.88671 | -163.19314 | 36060 ft | 379 kts | 233° |
| 2026-04-25 11:53 | -23.92045 | -163.23751 | 36061 ft | 379 kts | 233° |
| 2026-04-25 11:53 | -23.95411 | -163.28187 | 36062 ft | 379 kts | 233° |
| 2026-04-25 11:54 | -23.98776 | -163.32630 | 36064 ft | 379 kts | 233° |
| 2026-04-25 11:55 | -24.03798 | -163.39264 | 36069 ft | 379 kts | 233° |
| 2026-04-25 11:55 | -24.07166 | -163.43708 | 36070 ft | 379 kts | 233° |
| 2026-04-25 11:56 | -24.10527 | -163.48156 | 36089 ft | 379 kts | 233° |
| 2026-04-25 11:56 | -24.13322 | -163.51860 | 36091 ft | 378 kts | 233° |
| 2026-04-25 11:57 | -24.16671 | -163.56297 | 36085 ft | 377 kts | 233° |
| 2026-04-25 11:57 | -24.20003 | -163.60735 | 36082 ft | 377 kts | 233° |
| 2026-04-25 11:58 | -24.23334 | -163.65177 | 36079 ft | 377 kts | 233° |
| 2026-04-25 11:58 | -24.26669 | -163.69609 | 36080 ft | 377 kts | 234° |
| 2026-04-25 11:59 | -24.30003 | -163.74043 | 36078 ft | 377 kts | 233° |